Lery, Canada
Current Conditions -  °F | °C
As of 7:15 PM on Saturday 25 Oct 2014 (Local Time) from CYUL Reporting Station
Overcast Overcast  
Wind Chill: 54°   Ceiling: 3500
Heat Index: 54°   Visibility: 15mi
Dew Point: 50°   Wind: 14mph
Humidity: 88%   Direction: 200°SSW
Pressure: 29.45"   Gusts: NA
Location:  45.33°N, 73.82°W
Report Text: CYUL 252315Z 20012KT 15SM FEW017 BKN035 OVC048 12/10 A2945 RMK SF2SC4SC2 SLP972 DENSITY ALT 300FT
Loading
Personal Weather Stations






























Interactive Weather Map
Tropical Storm Tracking
New forecast layout! Learn more

10-Day Weather Forecast

Advertisements
Track Severe Weather on mobile